CAN weather

Guangzhou Baiyun International Airport
Guangzhou, Guangdong Province, China

Public forecast

Using degrees Celsius for public forecast. Weather courtesy of forecast.io.

Current aviation weather report (METAR) for Guangzhou Baiyun International Airport

Retrieved 2020/04/04 11:00 UTC (23 minutes ago):

ZGGG 041100Z 04003MPS 9999 BKN023 OVC050 18/14 Q1018 NOSIG

Aviation forecast (TAF) for Guangzhou Baiyun International Airport

Retrieved 2020/04/04 06:03 UTC (5 hours ago):

TAF ZGGG 040302Z 0406/0506 01004MPS 8000 BKN033 TX18/0407Z TN15/0422Z TEMPO 0500/0506 2000 TSRA SCT006 SCT026CB BKN030